AirNav   Jet Aviation Boston
 
 295 users online  

KANP Lee Airport
Annapolis, Maryland, USA

GOING TO ANNAPOLIS?


FAA INFORMATION EFFECTIVE 24 MAY 2018

Location

FAA Identifier: ANP
Lat/Long: 38-56-34.3600N / 076-34-06.2370W
38-56.572667N / 076-34.103950W
38.9428778 / -76.5683992
(estimated)
Elevation: 34.2 ft. / 10 m (estimated)
Variation: 10W (1985)
From city: 5 miles SW of ANNAPOLIS, MD
Time zone: UTC -4 (UTC -5 during Standard Time)
Zip code: 21037

Airport Operations

Airport use: Open to the public
Activation date: 06/1942
Control tower: no
ARTCC: WASHINGTON CENTER
FSS: LEESBURG FLIGHT SERVICE STATION
NOTAMs facility: DCA (NOTAM-D service available)
Attendance: 0700-1700
CONTACT AIRPORT MANAGER 410-956-1280 FOR APPROVAL OF ANY FLIGHT OPERATIONS BETWEEN 2200 - 0700 LOCAL. ARPT UNATNDD NEW YEARS; MEMORIAL DAY; JULY 4; LABOR DAY; THANKSGIVING & CHRISTMAS.
Pattern altitude: 1034.2 ft. MSL
Wind indicator: lighted
Segmented circle: no
Lights: ACTVT LIRL RWY 12/30 - CTAF. LIGHTING INOP BTW 2200-0700.
Beacon: white-green (lighted land airport)
DUSK-2200.
Landing fee: yes

Airport Communications

CTAF: 122.9
POTOMAC APPROACH: 119.7
POTOMAC DEPARTURE: 119.7
WX AWOS-3 at W29 (11 nm E): 120.575 (410-643-8795)
WX AWOS-3 at FME (12 nm NW): 123.925
WX ASOS at BWI (15 nm N): PHONE 410-691-1278
WX AWOS-3 at CGS (17 nm W): 121.225 (301-864-5497)

Nearby radio navigation aids

VOR radial/distance  VOR name  Freq  Var
BALr173/14.4BALTIMORE VORTAC115.1011W
ADWr070/16.1ANDREWS VORTAC113.1010W
OTTr040/16.4NOTTINGHAM VORTAC113.7010W
DCAr086/22.4WASHINGTON VOR/DME111.0009W
PPMr219/36.5PHILLIPS VOR/DME108.4009W
EMIr158/38.2WESTMINSTER VORTAC117.9008W

 
NDB name  Hdg/Dist  Freq  Var  ID
ELLICOTT166/22.837111WFND ..-. -. -..
OXONN075/23.933211WDCA -.. -.-. .-
GEORGETOWN097/26.032309WGTN --. - -.
DAVEE065/30.422309WDAA -.. .- .-
CAMBRIDGE324/35.035510WCGE -.-. --. .

Airport Services

Fuel available: 100LL
Parking: tiedowns
Airframe service: MAJOR
Powerplant service: MAJOR

Runway Information

Runway 12/30

Dimensions: 2500 x 48 ft. / 762 x 15 m
Surface: asphalt, in fair condition
MINOR PAVEMENT CRACKS FULL LENGTH.
Runway edge lights: low intensity
RUNWAY 12  RUNWAY 30
Latitude: 38-56.634583N38-56.510733N
Longitude: 076-34.355417W076-33.852483W
Elevation: 30.6 ft.31.3 ft.
Traffic pattern: leftleft
Runway heading: 118 magnetic, 108 true298 magnetic, 288 true
Displaced threshold: 476 ft.321 ft.
Markings: basic, in good conditionnonprecision, in good condition
Visual slope indicator: 2-light PAPI on left (5.75 degrees glide path)
VGSI APCHS TO BE FLOWN. RY 12 VGSI RELIABLE ON CENTERLINE ONLY.
2-light PAPI on right (4.25 degrees glide path)
Touchdown point: yes, no lightsyes, no lights
Obstructions: 53 ft. trees, 276 ft. from runway, 117 ft. right of centerline, 1:1 slope to clear
6 FT FENCE ACROSS APCH END MARKED. 10 FT ROAD 156 FT FM THLD.
39 ft. trees, 690 ft. from runway, 12:1 slope to clear
+6 FT FENCE ACROSS APCH END MKD. +15 FT PUBLIC ROAD AT THLD, R OF CNTRLN.

Airport Ownership and Management from official FAA records

Ownership: Privately-owned
Owner: LEE AIRPORT AUTHORITY LLC
P.O. BOX 789
EDGEWATER, MD 21037
Phone 410-956-1280
CORPORATION ESTABLISHED BY MARY C. LEE
Manager: LEE RUNWAY MANAGER LLC
P.O. BOX 789
EDGEWATER, MD 21037
Phone 410-956-1280

Airport Operational Statistics

Aircraft based on the field: 73
Single engine airplanes: 70
Multi engine airplanes: 3
    
Aircraft operations: avg 43/day *
84% local general aviation
13% transient general aviation
3% military
* for 12-month period ending 07 April 2017

Additional Remarks

NO LANDING ON GRASS. LDG FEE AFTER ONE HOUR OR OVERNIGHT.
TOUCH & GO OPNS PROHIBITED.
NO TAKE-OFFS AFTER 2200 DAILY.
NO GRASS CROSSOVER FM RY 12/30 TO TWY ROLLOUT TO THE END OF RY.
HEAVY BIRD AND WILDLIFE ACTIVITY ON AND INVOF AIRPORT.
ARPT CLSD 2200-0700 LCL, CTC ARPT MANAGER FOR DETAILS.
FOR CD CTC POTOMAC APCH AT 866-429-5882.

Instrument Procedures

NOTE: All procedures below are presented as PDF files. If you need a reader for these files, you should download the free Adobe Reader.

NOT FOR NAVIGATION. Please procure official charts for flight.
FAA instrument procedures published for use from 24 May 2018 at 0901Z to 21 June 2018 at 0900Z.

 
IAPs - Instrument Approach Procedures
RNAV (GPS)-A   download (157KB)
NOTE: Special Alternate Minimums apply   download (22KB)
NOTE: Special Take-Off Minimums/Departure Procedures apply   download (140KB)

Other nearby airports with instrument procedures:

W00 - Freeway Airport (10 nm W)
W29 - Bay Bridge Airport (11 nm E)
KFME - Tipton Airport (12 nm NW)
KBWI - Baltimore/Washington International Thurgood Marshall Airport (15 nm N)
KADW - Joint Base Andrews (16 nm SW)
KCGS - College Park Airport (17 nm W)
 
Loc | Ops | Rwys | IFR | FBO | Links
Com | Nav | Svcs | Stats | Notes

AirNav Hotels Sweepstakes
 
Area around KANP (Lee Airport)
 
Road maps at: MapQuest Bing Google
 
Aerial photo
WARNING: Photo may not be current or correct
Aerial photo of KANP (Lee Airport)
Photo taken 19-Oct-2016
looking northeast.

Do you have a better or more recent aerial photo of Lee Airport that you would like to share? If so, please send us your photo.

 
Sectional chart

 
Airport distance calculator
Flying to Lee Airport? Find the distance to fly.

From to KANP

Sunrise and sunset
Times for 27-May-2018
 Local
(UTC-4)
 Zulu
(UTC)
Morning civil twilight05:1509:15
Sunrise05:4609:46
Sunset20:2100:21
Evening civil twilight20:5200:52

Current date and time
Zulu (UTC)  27-May-2018 07:58:19
Local (UTC-4)  27-May-2018 03:58:19
 
METAR
KANP SuperAWOS
262255Z AUTO 00000KT 10SM 27/22 A2984
KNAK 
5nm NE 
270754Z AUTO 20003KT 10SM FEW090 24/M01 A2987 RMK AO2 SLP115 T02441011 $
KW29 
11nm E 
270735Z AUTO 18006KT 7SM SCT080 24/21 A2987 RMK AO2
KFME 
13nm NW 
270736Z AUTO 00000KT 5SM SCT090 21/20 A2990 RMK AO1
KBWI 
14nm N 
270754Z 15003KT 10SM FEW014 SCT085 BKN140 OVC160 22/22 A2986 RMK AO2 LTG DSNT E SLP111 T02220217
KADW 
16nm SW 
270721Z AUTO 18005KT 10SM BKN017 BKN130 22/21 A2987 RMK AO2 CIG 017V130 BKN017 V SCT SLP119
KCGS 
17nm W 
270737Z AUTO 00000KT 10SM BKN014 BKN030 23/21 A2987 RMK AO1 T02250210
TAF
KBWI 
14nm N 
270520Z 2706/2812 VRB03KT P6SM BKN150 FM270700 20004KT P6SM BKN025 FM270900 22004KT P6SM BKN008 FM271300 21004KT P6SM OVC040 FM271800 15004KT P6SM VCTS OVC040CB FM280000 10006KT P6SM OVC025
KADW 
16nm SW 
270100Z 2701/2807 21009KT 9999 SCT030 BKN045 QNH2983INS BECMG 2706/2707 21006KT 8000 -SHRA BKN015 QNH2984INS BECMG 2709/2710 22009KT 9000 -SHRA SCT020 BKN030 QNH2984INS BECMG 2717/2718 22012KT 8000 -SHRA BKN020 QNH2985INS TEMPO 2720/2723 22025G35KT -TSRA BKN020CB OVC030 BECMG 2723/2724 VRB06KT 4800 SHRA BKN005 QNH3009INS TX28/2717Z TN21/2708Z
NOTAMs
Click for the latest NOTAMs
NOTAMs are issued by the DoD/FAA and will open in a separate window not controlled by AirNav.

 

 
 

FBO, Fuel Providers, and Aircraft Ground Support

  
 Business Name 
 
 Contact 
 
 Services / Description 
 
Fuel Prices
 
Comments
  
Lee Runway Manager, LLC 410-956-1280
410-956-4129
[email]
Airport management, Aviation fuel, Aircraft parking (ramp or tiedown), Hangar leasing / sales, Pilot school (FAR Part 141), Flight training, ...

More info about Lee Runway Manager, LLC
Phillips 66
100LL
FS $5.50 
 Updated 14-May-2018
 
   3 read write
FS=Full service
Update Fuel Prices
 

Where to Eat: Catering, Restaurants, Food shops

  
 Business Name 
 
 Contact 
 
 Services / Description 
 
Distance
 
Comments
  
Ledo Pizza 410-956-6700
no information available

If you are affiliated with Ledo Pizza and would like to show here your services, contact info, web link, logo, and more, click here
0.1 miles  
   1 read write
Hayman's Crab House 410-956-2023
no information available

If you are affiliated with Hayman's Crab House and would like to show here your services, contact info, web link, logo, and more, click here
0.2 miles  
   write
 

Would you like to see your business listed on this page?

 If your business provides an interesting product or service to pilots, flight crews, aircraft, or users of the Lee Airport, you should consider listing it here.  To start the listing process, click on the button below
 
Add a business
 

Other Pages about Lee Airport

www.leeairport.org
www.presgroup.com/...
 
Update a link
 
Copyright © AirNav, LLC. All rights reserved. Privacy Policy  Contact